Metar Aviation Weather Data     LHBP Budapest Liszt Ferenc International Airport
Temperature
2°C Temperature
1°C Dewpoint
93% Humidity



Wind
2 KM/H
1 MPH
0 M/S
1 KTS



10°
Észak
Current Conditions

Clear Clear
Pressure 1021.92 (hPa) - 30.18 (inHg)
Visibility 5.6 (mile) - 9 (km)
Repülőtér
Airport-code LHBP

Location: Budapest Liszt Ferenc International Airport
Távolság: 14 (km)

Metar:
LHBP 172100Z 01001KT 9000 NSC 02/01 Q1022 NOSIG

Idő: 2021-10-17 22:00 BST